createdAt,value
2022-12-01T00:01:07.403Z,0.09
2022-12-01T00:03:34.329Z,0.08
2022-12-01T00:06:03.181Z,0.03
2022-12-01T00:08:30.011Z,0.00
2022-12-01T00:11:04.308Z,0.05
2022-12-01T00:13:31.079Z,0.02
2022-12-01T00:15:57.754Z,0.03
2022-12-01T00:18:24.410Z,0.00
2022-12-01T00:20:56.115Z,-0.01
2022-12-01T00:23:23.616Z,-0.02
2022-12-01T00:25:50.412Z,-0.04
2022-12-01T00:28:17.200Z,-0.03
2022-12-01T00:30:43.923Z,-0.04
2022-12-01T00:33:10.671Z,-0.02
2022-12-01T00:35:37.308Z,0.01
2022-12-01T00:38:03.985Z,0.04
2022-12-01T00:40:30.626Z,-0.03
2022-12-01T00:42:57.220Z,-0.04
2022-12-01T00:45:23.896Z,-0.06
2022-12-01T00:47:50.534Z,-0.07
2022-12-01T00:50:17.226Z,-0.16
2022-12-01T00:52:43.820Z,-0.12
2022-12-01T00:55:13.576Z,-0.13
2022-12-01T00:57:40.199Z,-0.12
2022-12-01T01:00:07.594Z,-0.14
2022-12-01T01:02:34.346Z,-0.17
2022-12-01T01:05:00.967Z,-0.16
2022-12-01T01:07:30.150Z,-0.16
2022-12-01T01:09:56.783Z,-0.18
2022-12-01T01:12:23.442Z,-0.24
2022-12-01T01:14:50.078Z,-0.29
2022-12-01T01:17:16.686Z,-0.37
2022-12-01T01:19:43.357Z,-0.29
2022-12-01T01:22:09.969Z,-0.38
2022-12-01T01:24:36.711Z,-0.36
2022-12-01T01:27:03.697Z,-0.30
2022-12-01T01:29:30.293Z,-0.34
2022-12-01T01:31:56.931Z,-0.34
2022-12-01T01:34:23.735Z,-0.34
2022-12-01T01:36:50.361Z,-0.36
2022-12-01T01:39:17.256Z,-0.38
2022-12-01T01:41:44.028Z,-0.44
2022-12-01T01:44:41.259Z,-0.38
2022-12-01T01:47:07.945Z,-0.34
2022-12-01T01:49:38.193Z,-0.40
2022-12-01T01:52:08.356Z,-0.50
2022-12-01T01:54:40.195Z,-0.52
2022-12-01T01:57:10.133Z,-0.49
2022-12-01T01:59:40.989Z,-0.36
2022-12-01T02:02:10.201Z,-0.49
2022-12-01T02:04:41.833Z,-0.48
2022-12-01T02:07:09.056Z,-0.46
2022-12-01T02:09:36.830Z,-0.48
2022-12-01T02:12:34.311Z,-0.46
2022-12-01T02:15:15.987Z,-0.47
2022-12-01T02:17:43.683Z,-0.51
2022-12-01T02:20:31.227Z,-0.48
2022-12-01T02:22:59.872Z,-0.57
2022-12-01T02:25:38.549Z,-0.60
2022-12-01T02:28:31.149Z,-0.52
2022-12-01T02:31:15.179Z,-0.49
2022-12-01T02:33:55.908Z,-0.51
2022-12-01T02:36:34.886Z,-0.49
2022-12-01T02:39:14.928Z,-0.51
2022-12-01T02:41:53.346Z,-0.48
2022-12-01T02:44:38.411Z,-0.58
2022-12-01T02:47:10.904Z,-0.63
2022-12-01T02:49:44.048Z,-0.56
2022-12-01T02:52:11.559Z,-0.52
2022-12-01T02:54:39.056Z,-0.56
2022-12-01T02:57:05.654Z,-0.55
2022-12-01T02:59:32.294Z,-0.55
2022-12-01T03:02:34.192Z,-0.56
2022-12-01T03:05:21.420Z,-0.56
2022-12-01T03:08:01.743Z,-0.53
2022-12-01T03:10:43.813Z,-0.58
2022-12-01T03:13:26.674Z,-0.57
2022-12-01T03:15:59.759Z,-0.71
2022-12-01T03:18:38.724Z,-0.73
2022-12-01T03:21:06.314Z,-0.57
2022-12-01T03:23:37.806Z,-0.67
2022-12-01T03:26:07.480Z,-0.70
2022-12-01T03:28:39.876Z,-0.73
2022-12-01T03:31:11.965Z,-0.71
2022-12-01T03:33:47.358Z,-0.65
2022-12-01T03:36:20.932Z,-0.70
2022-12-01T03:38:55.140Z,-0.71
2022-12-01T03:41:28.185Z,-0.72
2022-12-01T03:43:59.987Z,-0.72
2022-12-01T03:46:42.516Z,-0.77
2022-12-01T03:49:09.882Z,-0.80
2022-12-01T03:51:43.271Z,-0.83
2022-12-01T03:54:33.633Z,-0.86
2022-12-01T03:57:05.875Z,-0.85
2022-12-01T03:59:35.929Z,-0.84
2022-12-01T04:02:02.900Z,-0.83
2022-12-01T04:04:29.656Z,-0.85
2022-12-01T04:06:56.246Z,-0.85
2022-12-01T04:09:22.899Z,-0.87
2022-12-01T04:12:04.951Z,-0.78
2022-12-01T04:14:32.050Z,-0.85
2022-12-01T04:16:58.636Z,-0.78
2022-12-01T04:19:25.711Z,-0.89
2022-12-01T04:21:52.335Z,-0.86
2022-12-01T04:24:19.115Z,-0.80
2022-12-01T04:26:46.166Z,-0.72
2022-12-01T04:29:16.288Z,-0.78
2022-12-01T04:31:44.283Z,-0.85
2022-12-01T04:34:11.162Z,-0.80
2022-12-01T04:36:37.843Z,-0.82
2022-12-01T04:39:04.507Z,-0.83
2022-12-01T04:41:31.258Z,-0.79
2022-12-01T04:43:57.911Z,-0.76
2022-12-01T04:46:25.212Z,-0.87
2022-12-01T04:48:52.266Z,-0.80
2022-12-01T04:51:19.011Z,-0.76
2022-12-01T04:53:45.643Z,-0.82
2022-12-01T04:56:12.323Z,-0.79
2022-12-01T04:58:38.972Z,-0.75
2022-12-01T05:01:08.423Z,-0.90
2022-12-01T05:03:38.283Z,-0.83
2022-12-01T05:06:07.812Z,-0.80
2022-12-01T05:08:34.434Z,-0.78
2022-12-01T05:11:01.349Z,-0.76
2022-12-01T05:13:28.508Z,-0.79
2022-12-01T05:16:05.562Z,-0.78
2022-12-01T05:18:32.430Z,-0.75
2022-12-01T05:20:59.149Z,-0.75
2022-12-01T05:23:28.504Z,-0.70
2022-12-01T05:25:57.188Z,-0.67
2022-12-01T05:28:26.897Z,-0.64
2022-12-01T05:30:54.716Z,-0.61
2022-12-01T05:33:23.092Z,-0.56
2022-12-01T05:35:50.680Z,-0.52
2022-12-01T05:38:18.396Z,-0.48
2022-12-01T05:40:54.491Z,-0.46
2022-12-01T05:43:28.529Z,-0.44
2022-12-01T05:45:55.812Z,-0.42
2022-12-01T05:48:22.804Z,-0.42
2022-12-01T05:50:52.631Z,-0.40
2022-12-01T05:53:22.989Z,-0.38
2022-12-01T05:55:56.844Z,-0.37
2022-12-01T05:58:23.792Z,-0.31
2022-12-01T06:00:50.569Z,-0.28
2022-12-01T06:03:17.258Z,-0.27
2022-12-01T06:05:43.898Z,-0.25
2022-12-01T06:08:10.554Z,-0.20
2022-12-01T06:10:37.214Z,-0.11
2022-12-01T06:13:03.828Z,-0.10
2022-12-01T06:15:30.439Z,-0.08
2022-12-01T06:17:59.472Z,-0.03
2022-12-01T06:20:26.065Z,-0.02
2022-12-01T06:22:52.742Z,0.02
2022-12-01T06:25:19.386Z,0.03
2022-12-01T06:27:46.001Z,0.10
2022-12-01T06:30:13.012Z,0.14
2022-12-01T06:32:39.688Z,0.18
2022-12-01T06:35:06.919Z,0.20
2022-12-01T06:37:33.589Z,0.22
2022-12-01T06:40:00.214Z,0.21
2022-12-01T06:42:30.490Z,0.20
2022-12-01T06:44:57.216Z,0.25
2022-12-01T06:47:23.902Z,0.26
2022-12-01T06:49:50.841Z,0.24
2022-12-01T06:52:17.620Z,0.25
2022-12-01T06:54:44.253Z,0.29
2022-12-01T06:57:11.175Z,0.35
2022-12-01T06:59:37.937Z,0.35
2022-12-01T07:02:04.688Z,0.34
2022-12-01T07:04:31.415Z,0.39
2022-12-01T07:06:58.101Z,0.42
2022-12-01T07:09:24.671Z,0.40
2022-12-01T07:11:51.291Z,0.43
2022-12-01T07:14:25.001Z,0.44
2022-12-01T07:16:51.863Z,0.41
2022-12-01T07:19:18.586Z,0.48
2022-12-01T07:21:45.687Z,0.57
2022-12-01T07:24:12.654Z,0.61
2022-12-01T07:26:40.391Z,0.72
2022-12-01T07:29:08.742Z,0.79
2022-12-01T07:31:35.998Z,0.90
2022-12-01T07:34:02.731Z,0.76
2022-12-01T07:36:29.464Z,0.73
2022-12-01T07:38:56.130Z,0.70
2022-12-01T07:41:22.986Z,0.76
2022-12-01T07:43:49.576Z,0.70
2022-12-01T07:46:23.178Z,0.77
2022-12-01T07:48:50.227Z,0.73
2022-12-01T07:51:17.768Z,0.70
2022-12-01T07:53:47.102Z,0.71
2022-12-01T07:56:13.932Z,0.77
2022-12-01T07:58:41.387Z,0.73
2022-12-01T08:01:12.466Z,0.79
2022-12-01T08:03:39.690Z,0.79
2022-12-01T08:06:07.932Z,0.82
2022-12-01T08:08:37.220Z,0.91
2022-12-01T08:11:07.159Z,0.87
2022-12-01T08:13:34.232Z,0.87
2022-12-01T08:16:05.277Z,0.89
2022-12-01T08:18:35.539Z,0.90
2022-12-01T08:21:02.587Z,0.91
2022-12-01T08:23:29.193Z,0.94
2022-12-01T08:25:57.587Z,0.93
2022-12-01T08:28:24.203Z,0.94
2022-12-01T08:30:50.938Z,0.97
2022-12-01T08:33:17.658Z,1.02
2022-12-01T08:35:44.389Z,1.02
2022-12-01T08:38:11.201Z,1.06
2022-12-01T08:40:38.147Z,1.09
2022-12-01T08:43:05.671Z,1.10
2022-12-01T08:45:32.436Z,1.11
2022-12-01T08:47:59.934Z,1.15
2022-12-01T08:50:27.131Z,1.21
2022-12-01T08:52:54.264Z,1.34
2022-12-01T08:55:22.026Z,1.38
2022-12-01T08:57:48.691Z,1.49
2022-12-01T09:00:16.240Z,1.58
2022-12-01T09:02:42.962Z,1.52
2022-12-01T09:05:09.751Z,1.70
2022-12-01T09:07:36.445Z,1.73
2022-12-01T09:10:03.397Z,1.98
2022-12-01T09:12:30.154Z,2.03
2022-12-01T09:14:56.945Z,2.09
2022-12-01T09:17:23.843Z,2.21
2022-12-01T09:19:50.743Z,2.17
2022-12-01T09:22:17.636Z,2.11
2022-12-01T09:24:44.230Z,2.16
2022-12-01T09:27:10.906Z,2.21
2022-12-01T09:29:37.506Z,2.20
2022-12-01T09:32:04.135Z,2.22
2022-12-01T09:34:30.754Z,2.09
2022-12-01T09:36:58.635Z,2.08
2022-12-01T09:39:25.853Z,2.17
2022-12-01T09:41:57.747Z,2.23
2022-12-01T09:44:38.646Z,2.38
2022-12-01T09:47:14.580Z,2.24
2022-12-01T09:50:02.481Z,2.40
2022-12-01T09:52:39.840Z,2.45
2022-12-01T09:55:15.824Z,2.51
2022-12-01T09:57:44.051Z,2.48
2022-12-01T10:00:17.737Z,2.39
2022-12-01T10:02:52.161Z,2.34
2022-12-01T10:05:23.851Z,2.38
2022-12-01T10:08:02.443Z,2.43
2022-12-01T10:10:34.576Z,2.59
2022-12-01T10:13:01.608Z,2.54
2022-12-01T10:15:43.544Z,2.45
2022-12-01T10:18:25.474Z,2.37
2022-12-01T10:20:55.727Z,2.36
2022-12-01T10:23:39.325Z,2.37
2022-12-01T10:26:17.844Z,2.33
2022-12-01T10:28:53.898Z,2.50
2022-12-01T10:31:24.187Z,2.44
2022-12-01T10:33:58.545Z,2.52
2022-12-01T10:36:26.823Z,2.50
2022-12-01T10:38:53.693Z,2.59
2022-12-01T10:41:23.326Z,2.59
2022-12-01T10:43:54.007Z,2.55
2022-12-01T10:46:27.455Z,2.59
2022-12-01T10:48:58.351Z,2.59
2022-12-01T10:51:26.145Z,2.66
2022-12-01T10:54:11.463Z,2.60
2022-12-01T10:56:41.033Z,2.57
2022-12-01T10:59:38.161Z,2.51
2022-12-01T11:02:16.169Z,2.50
2022-12-01T11:04:46.544Z,2.55
2022-12-01T11:07:20.424Z,2.49
2022-12-01T11:09:59.205Z,2.56
2022-12-01T11:12:26.095Z,2.53
2022-12-01T11:14:55.682Z,2.56
2022-12-01T11:17:27.055Z,2.60
2022-12-01T11:19:53.849Z,2.57
2022-12-01T11:22:30.942Z,2.76
2022-12-01T11:25:00.650Z,2.70
2022-12-01T11:27:31.823Z,2.85
2022-12-01T11:30:05.009Z,2.71
2022-12-01T11:32:37.078Z,2.72
2022-12-01T11:35:22.937Z,2.90
2022-12-01T11:40:59.195Z,2.83
2022-12-01T11:43:29.827Z,2.84
2022-12-01T11:45:59.722Z,2.97
2022-12-01T11:48:29.219Z,2.90
2022-12-01T11:51:11.036Z,2.83
2022-12-01T11:53:40.594Z,2.83
2022-12-01T11:56:24.132Z,2.93
2022-12-01T11:58:59.354Z,2.88
2022-12-01T12:01:58.087Z,2.91
2022-12-01T12:04:40.410Z,2.91
2022-12-01T12:07:23.404Z,2.86
2022-12-01T12:10:06.338Z,2.81
2022-12-01T12:13:08.261Z,2.83
2022-12-01T12:15:55.849Z,2.73
2022-12-01T12:18:51.671Z,2.72
2022-12-01T12:21:33.373Z,2.76
2022-12-01T12:24:15.296Z,2.75
2022-12-01T12:26:58.402Z,2.74
2022-12-01T12:29:38.714Z,2.67
2022-12-01T12:32:35.135Z,2.68
2022-12-01T12:35:22.679Z,2.60
2022-12-01T12:40:41.623Z,2.60
2022-12-01T12:43:23.896Z,2.66
2022-12-01T12:49:18.141Z,2.62
2022-12-01T12:51:44.810Z,2.66
2022-12-01T12:54:12.545Z,2.66
2022-12-01T12:56:44.645Z,2.67
2022-12-01T12:59:19.252Z,2.63
2022-12-01T13:02:04.194Z,2.60
2022-12-01T13:04:42.127Z,2.59
2022-12-01T13:07:23.283Z,2.70
2022-12-01T13:10:00.643Z,2.65
2022-12-01T13:12:31.714Z,2.57
2022-12-01T13:15:13.650Z,2.58
2022-12-01T13:17:42.976Z,2.62
2022-12-01T13:20:16.075Z,2.63
2022-12-01T13:22:43.282Z,2.60
2022-12-01T13:25:15.258Z,2.60
2022-12-01T13:27:44.176Z,2.83
2022-12-01T13:30:26.603Z,2.71
2022-12-01T13:33:03.869Z,2.70
2022-12-01T13:35:33.338Z,2.73
2022-12-01T13:38:25.027Z,2.69
2022-12-01T13:41:11.264Z,2.61
2022-12-01T13:43:52.000Z,2.61
2022-12-01T13:46:22.605Z,2.55
2022-12-01T13:48:54.553Z,2.62
2022-12-01T13:51:21.381Z,2.71
2022-12-01T13:54:19.575Z,2.65
2022-12-01T13:57:01.700Z,2.60
2022-12-01T13:59:58.891Z,2.61
2022-12-01T14:02:29.197Z,2.58
2022-12-01T14:05:30.538Z,2.56
2022-12-01T14:07:57.963Z,2.66
2022-12-01T14:10:29.724Z,2.63
2022-12-01T14:13:01.862Z,2.53
2022-12-01T14:15:34.700Z,2.44
2022-12-01T14:18:18.875Z,2.40
2022-12-01T14:20:48.436Z,2.42
2022-12-01T14:23:18.177Z,2.39
2022-12-01T14:25:58.557Z,2.56
2022-12-01T14:29:00.650Z,2.47
2022-12-01T14:32:08.311Z,2.41
2022-12-01T14:34:37.824Z,2.35
2022-12-01T14:37:05.451Z,2.29
2022-12-01T14:39:36.091Z,2.26
2022-12-01T14:42:37.109Z,2.25
2022-12-01T14:45:05.523Z,2.29
2022-12-01T14:47:44.611Z,2.18
2022-12-01T14:50:19.610Z,2.23
2022-12-01T14:52:52.662Z,2.19
2022-12-01T14:55:25.107Z,2.19
2022-12-01T14:58:00.371Z,2.22
2022-12-01T15:00:27.873Z,2.19
2022-12-01T15:03:03.271Z,2.22
2022-12-01T15:05:32.652Z,2.21
2022-12-01T15:08:40.322Z,2.22
2022-12-01T15:11:09.444Z,2.20
2022-12-01T15:13:54.274Z,2.20
2022-12-01T15:16:23.773Z,2.16
2022-12-01T15:18:51.238Z,2.17
2022-12-01T15:21:25.778Z,2.16
2022-12-01T15:23:54.932Z,2.16
2022-12-01T15:26:24.320Z,2.16
2022-12-01T15:29:03.614Z,2.15
2022-12-01T15:31:30.765Z,2.13
2022-12-01T15:33:57.799Z,2.10
2022-12-01T15:36:24.602Z,2.09
2022-12-01T15:38:51.607Z,2.09
2022-12-01T15:41:29.961Z,2.08
2022-12-01T15:44:00.700Z,2.12
2022-12-01T15:46:30.832Z,2.20
2022-12-01T15:49:17.712Z,2.06
2022-12-01T15:51:44.708Z,2.04
2022-12-01T15:54:18.120Z,2.04
2022-12-01T15:56:45.670Z,1.99
2022-12-01T15:59:12.258Z,1.98
2022-12-01T16:01:41.260Z,2.02
2022-12-01T16:04:25.471Z,1.98
2022-12-01T16:06:58.849Z,2.09
2022-12-01T16:09:28.675Z,1.97
2022-12-01T16:12:05.437Z,1.92
2022-12-01T16:14:33.571Z,1.85
2022-12-01T16:17:00.286Z,1.89
2022-12-01T16:19:30.842Z,1.94
2022-12-01T16:22:17.988Z,1.91
2022-12-01T16:24:51.546Z,1.84
2022-12-01T16:27:28.452Z,1.80
2022-12-01T16:30:01.777Z,1.76
2022-12-01T16:32:38.721Z,1.90
2022-12-01T16:35:21.511Z,1.85
2022-12-01T16:37:48.149Z,1.69
2022-12-01T16:40:16.972Z,1.90
2022-12-01T16:42:43.756Z,1.86
2022-12-01T16:45:14.774Z,1.88
2022-12-01T16:47:42.475Z,1.85
2022-12-01T16:50:15.003Z,1.90
2022-12-01T16:52:45.027Z,1.71
2022-12-01T16:55:26.123Z,1.65
2022-12-01T16:57:52.739Z,1.75
2022-12-01T17:00:19.751Z,1.57
2022-12-01T17:02:46.409Z,1.74
2022-12-01T17:05:13.111Z,1.69
2022-12-01T17:07:39.889Z,1.67
2022-12-01T17:10:07.322Z,1.75
2022-12-01T17:12:33.954Z,1.75
2022-12-01T17:15:00.631Z,1.56
2022-12-01T17:17:29.761Z,1.44
2022-12-01T17:19:56.800Z,1.49
2022-12-01T17:22:24.479Z,1.42
2022-12-01T17:24:51.464Z,1.45
2022-12-01T17:27:18.282Z,1.55
2022-12-01T17:29:46.372Z,1.53
2022-12-01T17:32:14.110Z,1.60
2022-12-01T17:34:41.024Z,1.56
2022-12-01T17:37:07.953Z,1.46
2022-12-01T17:39:34.529Z,1.41
2022-12-01T17:42:01.209Z,1.48
2022-12-01T17:44:27.849Z,1.43
2022-12-01T17:46:54.580Z,1.42
2022-12-01T17:49:21.447Z,1.38
2022-12-01T17:51:48.120Z,1.31
2022-12-01T17:54:18.997Z,1.32
2022-12-01T17:56:45.984Z,1.31
2022-12-01T17:59:15.916Z,1.34
2022-12-01T18:01:43.501Z,1.35
2022-12-01T18:04:10.313Z,1.37
2022-12-01T18:06:36.990Z,1.30
2022-12-01T18:09:04.147Z,1.24
2022-12-01T18:11:30.814Z,1.32
2022-12-01T18:13:58.467Z,1.35
2022-12-01T18:16:29.162Z,1.23
2022-12-01T18:18:57.705Z,1.32
2022-12-01T18:21:25.908Z,1.34
2022-12-01T18:23:54.712Z,1.28
2022-12-01T18:26:22.790Z,1.24
2022-12-01T18:29:00.716Z,1.29
2022-12-01T18:31:28.938Z,1.31
2022-12-01T18:33:58.901Z,1.33
2022-12-01T18:36:26.559Z,1.38
2022-12-01T18:38:54.616Z,1.31
2022-12-01T18:41:21.321Z,1.29
2022-12-01T18:43:47.972Z,1.30
2022-12-01T18:46:16.692Z,1.32
2022-12-01T18:48:46.521Z,1.30
2022-12-01T18:51:13.994Z,1.34
2022-12-01T18:53:40.888Z,1.32
2022-12-01T18:56:11.890Z,1.33
2022-12-01T18:58:40.708Z,1.30
2022-12-01T19:01:22.738Z,1.22
2022-12-01T19:03:49.478Z,1.37
2022-12-01T19:06:16.977Z,1.28
2022-12-01T19:08:44.568Z,1.30
2022-12-01T19:11:11.315Z,1.30
2022-12-01T19:13:38.162Z,1.27
2022-12-01T19:16:19.409Z,1.27
2022-12-01T19:18:46.531Z,1.29
2022-12-01T19:21:15.876Z,1.28
2022-12-01T19:23:43.230Z,1.25
2022-12-01T19:26:13.351Z,1.20
2022-12-01T19:28:42.193Z,1.26
2022-12-01T19:31:12.160Z,1.16
2022-12-01T19:33:39.484Z,1.20
2022-12-01T19:36:16.539Z,1.26
2022-12-01T19:38:44.492Z,1.27
2022-12-01T19:41:11.981Z,1.28
2022-12-01T19:43:38.647Z,1.24
2022-12-01T19:46:11.531Z,1.25
2022-12-01T19:48:39.737Z,1.25
2022-12-01T19:51:06.818Z,1.25
2022-12-01T19:53:34.334Z,1.24
2022-12-01T19:56:03.538Z,1.24
2022-12-01T19:58:33.320Z,1.21
2022-12-01T20:01:06.181Z,1.23
2022-12-01T20:03:33.376Z,1.21
2022-12-01T20:06:07.296Z,1.21
2022-12-01T20:08:40.385Z,1.21
2022-12-01T20:11:07.746Z,1.20
2022-12-01T20:13:36.059Z,1.21
2022-12-01T20:16:06.362Z,1.20
2022-12-01T20:18:33.245Z,1.19
2022-12-01T20:21:17.340Z,1.20
2022-12-01T20:23:46.860Z,1.19
2022-12-01T20:26:15.019Z,1.19
2022-12-01T20:28:42.135Z,1.19
2022-12-01T20:31:13.999Z,1.19
2022-12-01T20:33:41.789Z,1.19
2022-12-01T20:36:09.622Z,1.20
2022-12-01T20:38:37.352Z,1.21
2022-12-01T20:41:05.672Z,1.20
2022-12-01T20:43:33.517Z,1.18
2022-12-01T20:46:00.865Z,1.19
2022-12-01T20:48:28.216Z,1.20
2022-12-01T20:50:55.361Z,1.19
2022-12-01T20:53:22.717Z,1.20
2022-12-01T20:55:49.427Z,1.19
2022-12-01T20:58:16.114Z,1.19
2022-12-01T21:00:44.578Z,1.21
2022-12-01T21:03:12.573Z,1.19
2022-12-01T21:05:40.763Z,1.20
2022-12-01T21:08:10.601Z,1.22
2022-12-01T21:10:39.928Z,1.23
2022-12-01T21:13:37.747Z,1.21
2022-12-01T21:16:12.354Z,1.19
2022-12-01T21:18:51.396Z,1.17
2022-12-01T21:21:24.087Z,1.14
2022-12-01T21:24:03.051Z,1.14
2022-12-01T21:26:29.680Z,1.14
2022-12-01T21:28:59.780Z,1.15
2022-12-01T21:31:26.945Z,1.16
2022-12-01T21:33:54.035Z,1.15
2022-12-01T21:36:22.593Z,1.14
2022-12-01T21:39:05.531Z,1.19
2022-12-01T21:41:32.184Z,1.19
2022-12-01T21:44:07.632Z,1.16
2022-12-01T21:46:35.280Z,1.17
2022-12-01T21:49:02.455Z,1.17
2022-12-01T21:51:30.830Z,1.16
2022-12-01T21:53:57.923Z,1.17
2022-12-01T21:56:29.183Z,1.17
2022-12-01T21:58:59.990Z,1.15
2022-12-01T22:01:32.706Z,1.20
2022-12-01T22:04:02.735Z,1.18
2022-12-01T22:06:37.869Z,1.23
2022-12-01T22:09:19.643Z,1.20
2022-12-01T22:11:51.976Z,1.18
2022-12-01T22:14:22.046Z,1.13
2022-12-01T22:16:55.143Z,1.18
2022-12-01T22:19:38.211Z,1.12
2022-12-01T22:22:23.618Z,1.11
2022-12-01T22:24:53.851Z,1.13
2022-12-01T22:27:22.584Z,1.14
2022-12-01T22:29:52.879Z,1.05
2022-12-01T22:32:21.510Z,1.00
2022-12-01T22:34:53.485Z,1.23
2022-12-01T22:37:23.331Z,1.21
2022-12-01T22:39:53.936Z,1.18
2022-12-01T22:42:31.205Z,1.13
2022-12-01T22:45:15.962Z,1.14
2022-12-01T22:47:42.533Z,1.07
2022-12-01T22:50:26.317Z,1.03
2022-12-01T22:52:55.619Z,0.94
2022-12-01T22:55:22.273Z,0.99
2022-12-01T22:57:48.901Z,0.86
2022-12-01T23:00:20.667Z,0.87
2022-12-01T23:02:48.797Z,0.80
2022-12-01T23:05:23.380Z,0.81
2022-12-01T23:07:51.289Z,0.85
2022-12-01T23:10:25.135Z,0.85
2022-12-01T23:12:54.976Z,0.80
2022-12-01T23:15:39.513Z,0.84
2022-12-01T23:18:22.859Z,0.89
2022-12-01T23:20:51.746Z,0.87
2022-12-01T23:23:21.364Z,0.84
2022-12-01T23:25:50.151Z,0.88
2022-12-01T23:28:17.370Z,0.79
2022-12-01T23:30:46.147Z,0.84
2022-12-01T23:33:22.471Z,0.94
2022-12-01T23:36:08.970Z,0.82
2022-12-01T23:38:36.606Z,0.85
2022-12-01T23:41:07.687Z,0.82
2022-12-01T23:43:40.079Z,0.76
2022-12-01T23:46:24.348Z,0.72
2022-12-01T23:49:00.113Z,0.66
2022-12-01T23:51:31.865Z,0.62
2022-12-01T23:54:06.211Z,0.74
2022-12-01T23:56:32.972Z,0.66
2022-12-01T23:59:01.165Z,0.65
